createdAt,value
2022-09-14T00:00:13.537Z,65.95
2022-09-14T00:03:01.638Z,61.28
2022-09-14T00:05:49.731Z,68.10
2022-09-14T00:08:37.905Z,53.72
2022-09-14T00:11:29.364Z,60.53
2022-09-14T00:14:18.355Z,55.17
2022-09-14T00:17:06.108Z,61.10
2022-09-14T00:19:53.971Z,63.25
2022-09-14T00:22:41.856Z,62.72
2022-09-14T00:25:29.909Z,59.13
2022-09-14T00:28:17.866Z,62.40
2022-09-14T00:31:06.972Z,65.07
2022-09-14T00:33:54.710Z,64.20
2022-09-14T00:36:47.210Z,69.90
2022-09-14T00:39:34.948Z,69.00
2022-09-14T00:42:23.051Z,70.63
2022-09-14T00:45:18.223Z,75.28
2022-09-14T00:48:06.002Z,77.15
2022-09-14T00:50:54.681Z,74.95
2022-09-14T00:53:43.016Z,72.72
2022-09-14T00:56:31.470Z,73.43
2022-09-14T00:59:29.710Z,68.65
2022-09-14T01:02:21.551Z,67.03
2022-09-14T01:05:11.615Z,67.50
2022-09-14T01:08:49.533Z,65.90
2022-09-14T01:12:11.897Z,57.72
2022-09-14T01:15:21.452Z,60.05
2022-09-14T01:18:29.273Z,56.33
2022-09-14T01:21:32.575Z,58.55
2022-09-14T01:24:42.616Z,51.63
2022-09-14T01:27:41.635Z,54.72
2022-09-14T01:30:33.843Z,56.65
2022-09-14T01:33:36.621Z,60.13
2022-09-14T01:36:26.797Z,58.42
2022-09-14T01:39:16.611Z,51.38
2022-09-14T01:42:05.083Z,53.47
2022-09-14T01:44:58.266Z,59.00
2022-09-14T01:47:52.741Z,58.08
2022-09-14T01:50:45.173Z,57.00
2022-09-14T01:53:47.320Z,54.33
2022-09-14T01:56:42.441Z,50.88
2022-09-14T01:59:38.497Z,59.33
2022-09-14T02:02:33.415Z,53.95
2022-09-14T02:05:38.013Z,56.78
2022-09-14T02:11:15.949Z,52.47
2022-09-14T02:14:04.347Z,51.85
2022-09-14T02:16:52.113Z,56.75
2022-09-14T02:19:54.805Z,60.72
2022-09-14T02:22:42.565Z,59.47
2022-09-14T02:25:30.854Z,60.85
2022-09-14T02:28:18.573Z,59.92
2022-09-14T02:31:47.057Z,53.20
2022-09-14T02:35:05.833Z,49.30
2022-09-14T02:38:15.292Z,51.95
2022-09-14T02:41:19.104Z,53.95
2022-09-14T02:44:43.546Z,51.42
2022-09-14T02:47:50.708Z,57.65
2022-09-14T02:50:56.454Z,54.22
2022-09-14T02:54:08.903Z,51.55
2022-09-14T02:57:02.001Z,50.00
2022-09-14T02:59:49.922Z,46.45
2022-09-14T03:02:37.677Z,52.20
2022-09-14T03:05:25.570Z,51.40
2022-09-14T03:08:13.588Z,46.67
2022-09-14T03:11:02.115Z,46.78
2022-09-14T03:13:49.898Z,50.72
2022-09-14T03:16:39.018Z,55.05
2022-09-14T03:19:26.773Z,50.78
2022-09-14T03:22:14.487Z,43.28
2022-09-14T03:25:02.197Z,48.45
2022-09-14T03:27:53.550Z,53.42
2022-09-14T03:30:41.391Z,45.72
2022-09-14T03:33:29.141Z,61.60
2022-09-14T03:36:19.744Z,43.53
2022-09-14T03:39:07.548Z,53.33
2022-09-14T03:41:55.252Z,56.10
2022-09-14T03:44:43.380Z,52.92
2022-09-14T03:47:31.273Z,52.38
2022-09-14T03:50:20.015Z,52.13
2022-09-14T03:53:07.899Z,55.17
2022-09-14T03:55:55.819Z,57.50
2022-09-14T03:58:45.369Z,47.50
2022-09-14T04:01:33.264Z,52.85
2022-09-14T04:04:21.160Z,41.67
2022-09-14T04:07:08.978Z,45.13
2022-09-14T04:09:56.756Z,55.50
2022-09-14T04:12:44.483Z,76.25
2022-09-14T04:15:32.220Z,100.97
2022-09-14T04:18:19.976Z,101.47
2022-09-14T04:21:20.717Z,120.43
2022-09-14T04:24:15.698Z,153.68
2022-09-14T04:27:04.248Z,293.38
2022-09-14T04:29:52.180Z,241.40
2022-09-14T04:32:39.909Z,133.07
2022-09-14T04:35:27.655Z,136.35
2022-09-14T04:38:15.371Z,132.50
2022-09-14T04:41:16.100Z,166.25
2022-09-14T04:44:03.860Z,169.77
2022-09-14T04:46:51.801Z,159.63
2022-09-14T04:49:39.756Z,147.60
2022-09-14T04:52:27.526Z,114.93
2022-09-14T04:55:15.529Z,126.45
2022-09-14T04:58:03.672Z,137.07
2022-09-14T05:00:51.380Z,139.45
2022-09-14T05:03:40.428Z,142.02
2022-09-14T05:06:32.563Z,135.18
2022-09-14T05:09:20.467Z,140.02
2022-09-14T05:12:08.486Z,123.47
2022-09-14T05:14:56.316Z,141.07
2022-09-14T05:17:44.043Z,128.93
2022-09-14T05:20:31.848Z,130.13
2022-09-14T05:23:19.587Z,139.45
2022-09-14T05:26:07.610Z,123.18
2022-09-14T05:28:58.132Z,133.23
2022-09-14T05:31:46.432Z,145.02
2022-09-14T05:34:34.197Z,153.07
2022-09-14T05:37:21.935Z,137.90
2022-09-14T05:40:10.400Z,150.07
2022-09-14T05:42:58.209Z,125.63
2022-09-14T05:45:46.088Z,123.97
2022-09-14T05:48:35.249Z,109.53
2022-09-14T05:51:25.425Z,103.20
2022-09-14T05:54:13.403Z,91.22
2022-09-14T05:57:01.160Z,63.15
2022-09-14T05:59:48.904Z,77.07
2022-09-14T06:02:36.678Z,56.88
2022-09-14T06:05:25.593Z,54.63
2022-09-14T06:08:13.417Z,61.00
2022-09-14T06:11:14.938Z,54.00
2022-09-14T06:14:04.435Z,50.35
2022-09-14T06:16:52.193Z,53.53
2022-09-14T06:19:39.951Z,57.05
2022-09-14T06:22:27.650Z,50.53
2022-09-14T06:25:15.347Z,61.55
2022-09-14T06:28:03.203Z,56.67
2022-09-14T06:30:51.270Z,74.13
2022-09-14T06:33:43.716Z,60.65
2022-09-14T06:36:31.420Z,71.45
2022-09-14T06:39:19.120Z,64.88
2022-09-14T06:42:06.957Z,63.95
2022-09-14T06:44:54.761Z,67.57
2022-09-14T06:47:42.483Z,64.03
2022-09-14T06:50:30.173Z,51.78
2022-09-14T06:53:17.950Z,49.35
2022-09-14T06:56:05.737Z,47.20
2022-09-14T06:58:53.800Z,46.20
2022-09-14T07:01:42.919Z,39.90
2022-09-14T07:04:30.627Z,41.35
2022-09-14T07:07:18.364Z,38.90
2022-09-14T07:10:06.535Z,36.25
2022-09-14T07:13:03.464Z,28.23
2022-09-14T07:15:51.918Z,29.95
2022-09-14T07:18:40.220Z,32.40
2022-09-14T07:21:29.235Z,30.60
2022-09-14T07:24:17.031Z,26.52
2022-09-14T07:27:04.747Z,30.58
2022-09-14T07:29:52.524Z,27.35
2022-09-14T07:32:40.340Z,26.83
2022-09-14T07:35:28.079Z,23.55
2022-09-14T07:38:17.288Z,20.45
2022-09-14T07:41:11.398Z,21.13
2022-09-14T07:44:01.312Z,18.88
2022-09-14T07:46:49.212Z,21.67
2022-09-14T07:49:36.970Z,18.60
2022-09-14T07:52:24.694Z,22.15
2022-09-14T07:55:12.527Z,22.45
2022-09-14T07:58:00.297Z,21.58
2022-09-14T08:00:48.017Z,20.13
2022-09-14T08:03:36.422Z,21.58
2022-09-14T08:06:29.023Z,20.25
2022-09-14T08:09:16.784Z,18.98
2022-09-14T08:12:05.632Z,20.88
2022-09-14T08:14:53.612Z,22.33
2022-09-14T08:17:41.403Z,19.60
2022-09-14T08:20:29.195Z,20.50
2022-09-14T08:23:16.918Z,19.95
2022-09-14T08:26:14.628Z,18.88
2022-09-14T08:29:04.773Z,18.80
2022-09-14T08:31:53.131Z,20.67
2022-09-14T08:34:40.909Z,20.02
2022-09-14T08:37:28.644Z,20.75
2022-09-14T08:40:17.984Z,20.92
2022-09-14T08:43:05.780Z,18.48
2022-09-14T08:46:03.655Z,18.85
2022-09-14T08:48:52.429Z,16.35
2022-09-14T08:51:40.333Z,15.63
2022-09-14T08:54:28.285Z,13.63
2022-09-14T08:57:29.150Z,11.52
2022-09-14T09:00:22.802Z,12.02
2022-09-14T09:03:46.473Z,13.65
2022-09-14T09:07:05.793Z,17.25
2022-09-14T09:09:56.573Z,11.63
2022-09-14T09:13:06.352Z,13.98
2022-09-14T09:15:59.789Z,13.90
2022-09-14T09:18:53.481Z,10.90
2022-09-14T09:21:47.646Z,12.15
2022-09-14T09:27:32.451Z,13.90
2022-09-14T09:30:20.664Z,15.95
2022-09-14T09:33:17.314Z,13.40
2022-09-14T09:36:08.161Z,14.30
2022-09-14T09:38:55.891Z,12.75
2022-09-14T09:41:57.687Z,11.50
2022-09-14T09:45:05.970Z,18.10
2022-09-14T09:47:53.809Z,14.18
2022-09-14T09:51:09.615Z,13.63
2022-09-14T09:54:25.356Z,15.27
2022-09-14T09:57:37.265Z,13.95
2022-09-14T10:00:29.585Z,13.38
2022-09-14T10:03:33.314Z,11.25
2022-09-14T10:06:21.088Z,15.20
2022-09-14T10:09:21.875Z,12.57
2022-09-14T10:12:16.640Z,10.95
2022-09-14T10:15:44.318Z,11.27
2022-09-14T10:18:32.164Z,12.13
2022-09-14T10:21:23.260Z,11.38
2022-09-14T10:24:21.786Z,11.30
2022-09-14T10:27:40.613Z,13.73
2022-09-14T10:30:51.299Z,10.82
2022-09-14T10:33:40.082Z,11.27
2022-09-14T10:36:42.724Z,10.30
2022-09-14T10:39:41.171Z,12.68
2022-09-14T10:42:39.408Z,11.13
2022-09-14T10:45:36.076Z,12.18
2022-09-14T10:49:13.889Z,10.45
2022-09-14T10:52:12.232Z,9.20
2022-09-14T10:55:36.931Z,9.55
2022-09-14T10:59:08.887Z,11.63
2022-09-14T11:02:31.225Z,12.32
2022-09-14T11:05:34.788Z,12.07
2022-09-14T11:08:31.769Z,11.52
2022-09-14T11:11:47.822Z,12.50
2022-09-14T11:14:51.623Z,13.52
2022-09-14T11:18:09.940Z,11.88
2022-09-14T11:21:30.912Z,15.02
2022-09-14T11:24:34.628Z,11.65
2022-09-14T11:27:25.444Z,12.93
2022-09-14T11:30:21.055Z,11.95
2022-09-14T11:33:26.853Z,12.20
2022-09-14T11:36:23.967Z,11.60
2022-09-14T11:39:22.953Z,11.40
2022-09-14T11:42:28.934Z,13.82
2022-09-14T11:45:36.561Z,14.15
2022-09-14T11:48:57.405Z,14.13
2022-09-14T11:52:13.265Z,14.88
2022-09-14T11:55:03.131Z,14.05
2022-09-14T11:57:50.989Z,11.65
2022-09-14T12:01:22.202Z,12.20
2022-09-14T12:04:17.070Z,11.85
2022-09-14T12:07:05.167Z,13.82
2022-09-14T12:09:53.835Z,12.15
2022-09-14T12:12:48.824Z,14.80
2022-09-14T12:15:39.447Z,14.00
2022-09-14T12:18:28.095Z,16.15
2022-09-14T12:21:25.609Z,13.40
2022-09-14T12:24:21.515Z,12.55
2022-09-14T12:27:22.763Z,12.00
2022-09-14T12:30:55.330Z,12.43
2022-09-14T12:33:46.053Z,12.15
2022-09-14T12:36:36.449Z,13.20
2022-09-14T12:39:30.887Z,10.32
2022-09-14T12:42:32.072Z,15.50
2022-09-14T12:46:02.173Z,10.32
2022-09-14T12:48:54.206Z,10.75
2022-09-14T12:51:49.808Z,12.05
2022-09-14T12:55:07.458Z,10.82
2022-09-14T12:58:17.445Z,18.70
2022-09-14T13:01:31.882Z,12.75
2022-09-14T13:04:28.755Z,10.10
2022-09-14T13:07:19.685Z,12.68
2022-09-14T13:10:20.967Z,14.15
2022-09-14T13:13:25.457Z,15.05
2022-09-14T13:19:10.194Z,18.67
2022-09-14T13:22:02.785Z,18.70
2022-09-14T13:24:51.553Z,17.08
2022-09-14T13:27:39.964Z,20.55
2022-09-14T13:30:29.478Z,19.33
2022-09-14T13:33:18.174Z,19.20
2022-09-14T13:36:07.036Z,21.63
2022-09-14T13:38:56.500Z,21.23
2022-09-14T13:41:44.812Z,20.40
2022-09-14T13:44:49.738Z,17.90
2022-09-14T13:47:39.673Z,21.27
2022-09-14T13:50:27.683Z,17.63
2022-09-14T13:53:49.059Z,19.77
2022-09-14T13:56:36.821Z,23.42
2022-09-14T13:59:24.773Z,23.20
2022-09-14T14:02:14.046Z,25.55
2022-09-14T14:05:04.029Z,21.83
2022-09-14T14:07:52.342Z,27.33
2022-09-14T14:10:46.208Z,24.40
2022-09-14T14:13:37.461Z,20.77
2022-09-14T14:16:28.988Z,25.67
2022-09-14T14:19:31.058Z,21.83
2022-09-14T14:22:26.114Z,21.92
2022-09-14T14:25:28.888Z,25.45
2022-09-14T14:28:26.497Z,28.83
2022-09-14T14:31:19.691Z,29.02
2022-09-14T14:34:33.993Z,29.33
2022-09-14T14:37:22.280Z,34.17
2022-09-14T14:40:12.618Z,29.30
2022-09-14T14:43:03.490Z,37.75
2022-09-14T14:45:57.292Z,68.15
2022-09-14T14:48:45.032Z,35.65
2022-09-14T14:51:32.764Z,39.80
2022-09-14T14:54:21.231Z,41.58
2022-09-14T14:57:10.090Z,34.03
2022-09-14T14:59:57.795Z,35.35
2022-09-14T15:02:46.063Z,40.67
2022-09-14T15:05:33.869Z,40.50
2022-09-14T15:08:21.645Z,45.63
2022-09-14T15:11:18.966Z,37.35
2022-09-14T15:14:11.845Z,36.20
2022-09-14T15:17:00.394Z,37.35
2022-09-14T15:19:48.351Z,45.15
2022-09-14T15:22:36.718Z,47.25
2022-09-14T15:25:24.434Z,42.40
2022-09-14T15:28:12.218Z,37.25
2022-09-14T15:31:03.897Z,36.22
2022-09-14T15:33:55.150Z,36.42
2022-09-14T15:36:52.483Z,34.95
2022-09-14T15:39:40.222Z,36.72
2022-09-14T15:42:28.098Z,38.88
2022-09-14T15:45:15.837Z,36.50
2022-09-14T15:48:03.630Z,35.13
2022-09-14T15:50:51.324Z,34.80
2022-09-14T15:53:39.428Z,32.88
2022-09-14T15:56:27.334Z,42.90
2022-09-14T15:59:15.080Z,36.67
2022-09-14T16:02:04.024Z,41.50
2022-09-14T16:04:52.079Z,47.13
2022-09-14T16:07:40.051Z,41.78
2022-09-14T16:10:27.838Z,42.65
2022-09-14T16:13:15.557Z,37.40
2022-09-14T16:16:15.959Z,40.03
2022-09-14T16:19:14.097Z,40.65
2022-09-14T16:22:01.911Z,40.95
2022-09-14T16:24:49.665Z,41.25
2022-09-14T16:27:37.428Z,40.40
2022-09-14T16:30:25.166Z,37.83
2022-09-14T16:33:12.972Z,35.30
2022-09-14T16:36:10.461Z,35.70
2022-09-14T16:39:04.327Z,36.17
2022-09-14T16:41:56.185Z,42.05
2022-09-14T16:44:44.064Z,32.03
2022-09-14T16:47:32.634Z,35.53
2022-09-14T16:50:20.387Z,31.08
2022-09-14T16:53:08.136Z,33.67
2022-09-14T16:56:07.688Z,35.47
2022-09-14T16:58:56.467Z,37.33
2022-09-14T17:01:48.667Z,35.55
2022-09-14T17:04:39.789Z,37.65
2022-09-14T17:07:27.637Z,39.38
2022-09-14T17:10:15.360Z,36.72
2022-09-14T17:13:03.153Z,39.58
2022-09-14T17:15:50.985Z,39.22
2022-09-14T17:18:41.181Z,46.45
2022-09-14T17:21:36.578Z,55.78
2022-09-14T17:24:25.820Z,76.38
2022-09-14T17:27:13.624Z,78.45
2022-09-14T17:30:01.331Z,55.70
2022-09-14T17:32:49.070Z,29.58
2022-09-14T17:35:36.859Z,35.53
2022-09-14T17:38:28.709Z,33.00
2022-09-14T17:41:19.850Z,42.20
2022-09-14T17:44:11.240Z,40.00
2022-09-14T17:46:59.161Z,27.83
2022-09-14T17:49:47.134Z,31.45
2022-09-14T17:52:35.394Z,24.25
2022-09-14T17:55:23.211Z,21.98
2022-09-14T17:58:10.958Z,16.60
2022-09-14T18:01:14.495Z,15.93
2022-09-14T18:04:10.022Z,14.13
2022-09-14T18:06:58.074Z,13.55
2022-09-14T18:09:45.794Z,16.13
2022-09-14T18:12:36.345Z,17.42
2022-09-14T18:15:24.043Z,20.08
2022-09-14T18:18:11.820Z,16.83
2022-09-14T18:21:00.633Z,15.48
2022-09-14T18:23:50.817Z,14.70
2022-09-14T18:26:38.556Z,13.90
2022-09-14T18:29:27.435Z,16.00
2022-09-14T18:32:15.180Z,13.60
2022-09-14T18:35:02.991Z,14.32
2022-09-14T18:37:50.715Z,19.45
2022-09-14T18:40:39.071Z,14.82
2022-09-14T18:43:26.819Z,17.75
2022-09-14T18:46:15.578Z,12.50
2022-09-14T18:49:03.670Z,17.42
2022-09-14T18:51:51.678Z,20.83
2022-09-14T18:54:39.431Z,19.15
2022-09-14T18:57:27.998Z,18.00
2022-09-14T19:00:18.738Z,18.35
2022-09-14T19:03:06.893Z,18.58
2022-09-14T19:05:54.668Z,17.63
2022-09-14T19:08:43.056Z,21.00
2022-09-14T19:11:31.812Z,24.52
2022-09-14T19:14:20.600Z,26.67
2022-09-14T19:17:08.325Z,30.45
2022-09-14T19:19:56.083Z,24.42
2022-09-14T19:22:43.844Z,26.27
2022-09-14T19:25:31.710Z,21.15
2022-09-14T19:28:19.428Z,21.45
2022-09-14T19:31:14.139Z,17.27
2022-09-14T19:34:03.856Z,14.77
2022-09-14T19:36:53.029Z,13.93
2022-09-14T19:39:42.243Z,15.02
2022-09-14T19:42:29.964Z,12.02
2022-09-14T19:45:18.757Z,11.95
2022-09-14T19:48:06.491Z,10.48
2022-09-14T19:51:03.963Z,10.07
2022-09-14T19:53:54.306Z,13.18
2022-09-14T19:56:42.500Z,10.20
2022-09-14T19:59:30.327Z,14.73
2022-09-14T20:02:18.145Z,16.20
2022-09-14T20:05:08.258Z,9.25
2022-09-14T20:07:56.036Z,9.80
2022-09-14T20:10:43.769Z,10.80
2022-09-14T20:13:32.424Z,7.55
2022-09-14T20:16:25.679Z,7.78
2022-09-14T20:19:16.636Z,11.57
2022-09-14T20:22:04.342Z,14.18
2022-09-14T20:24:52.100Z,14.20
2022-09-14T20:27:42.335Z,17.95
2022-09-14T20:30:30.134Z,16.65
2022-09-14T20:33:17.861Z,12.57
2022-09-14T20:36:12.792Z,15.45
2022-09-14T20:39:00.878Z,16.65
2022-09-14T20:41:48.972Z,19.23
2022-09-14T20:44:36.742Z,14.57
2022-09-14T20:47:24.780Z,16.10
2022-09-14T20:50:12.512Z,19.80
2022-09-14T20:53:00.769Z,17.52
2022-09-14T20:55:49.141Z,12.80
2022-09-14T20:58:37.972Z,16.38
2022-09-14T21:01:29.509Z,18.00
2022-09-14T21:04:20.958Z,20.45
2022-09-14T21:07:10.829Z,16.35
2022-09-14T21:09:59.264Z,17.25
2022-09-14T21:12:47.235Z,15.93
2022-09-14T21:15:34.968Z,20.05
2022-09-14T21:18:22.747Z,17.10
2022-09-14T21:21:13.981Z,19.67
2022-09-14T21:24:02.396Z,16.88
2022-09-14T21:26:50.719Z,20.30
2022-09-14T21:29:38.608Z,18.60
2022-09-14T21:32:26.391Z,16.88
2022-09-14T21:35:14.438Z,21.73
2022-09-14T21:38:02.194Z,15.93
2022-09-14T21:40:49.899Z,7.35
2022-09-14T21:43:40.882Z,7.15
2022-09-14T21:46:29.093Z,9.20
2022-09-14T21:49:21.817Z,6.85
2022-09-14T21:52:09.539Z,6.95
2022-09-14T21:54:57.457Z,4.75
2022-09-14T21:57:48.173Z,6.40
2022-09-14T22:00:36.006Z,13.40
2022-09-14T22:03:24.057Z,5.47
2022-09-14T22:06:13.901Z,4.75
2022-09-14T22:09:02.482Z,5.18
2022-09-14T22:11:50.334Z,4.90
2022-09-14T22:14:38.153Z,4.18
2022-09-14T22:17:29.834Z,3.67
2022-09-14T22:20:17.634Z,6.78
2022-09-14T22:23:05.371Z,8.82
2022-09-14T22:25:53.325Z,5.80
2022-09-14T22:28:41.073Z,4.78
2022-09-14T22:31:30.062Z,4.32
2022-09-14T22:34:18.129Z,5.72
2022-09-14T22:37:06.369Z,6.15
2022-09-14T22:39:54.150Z,5.90
2022-09-14T22:42:41.924Z,4.68
2022-09-14T22:45:29.677Z,4.65
2022-09-14T22:48:19.124Z,4.35
2022-09-14T22:51:10.418Z,7.90
2022-09-14T22:53:58.286Z,4.57
2022-09-14T22:56:46.021Z,6.47
2022-09-14T22:59:33.746Z,5.55
2022-09-14T23:02:21.524Z,8.63
2022-09-14T23:05:09.770Z,12.68
2022-09-14T23:07:57.690Z,6.35
2022-09-14T23:10:46.595Z,6.85
2022-09-14T23:13:42.434Z,9.32
2022-09-14T23:16:31.355Z,6.57
2022-09-14T23:19:19.448Z,6.75
2022-09-14T23:22:07.259Z,6.95
2022-09-14T23:24:55.019Z,7.28
2022-09-14T23:27:45.212Z,8.38
2022-09-14T23:30:33.950Z,8.27
2022-09-14T23:33:21.730Z,9.45
2022-09-14T23:36:09.513Z,15.15
2022-09-14T23:38:58.250Z,9.13
2022-09-14T23:41:46.079Z,9.40
2022-09-14T23:44:33.905Z,12.65
2022-09-14T23:47:21.607Z,16.75
2022-09-14T23:50:09.901Z,12.82
2022-09-14T23:52:57.779Z,12.85
2022-09-14T23:55:45.500Z,12.48
2022-09-14T23:58:33.418Z,12.00
